Time;durP1;ratioP1;P1;durP2;ratioP2;P2;SDS_P1;SDS_P2;PMS_P1;PMS_P2;Temp;Humidity;BMP_temperature;BMP_pressure;BME280_temperature;BME280_humidity;BME280_pressure;Samples;Min_cycle;Max_cycle;Signal;HPM_P1;HPM_P2
2022/10/07 00:01:12;;;;;;;18.20;13.52;;;;;;;;;;4853992;29;20503;-80
2022/10/07 00:03:38;;;;;;;14.75;12.60;;;;;;;;;;4846008;29;20055;-80
2022/10/07 00:06:14;;;;;;;16.60;12.57;;;;;;;;;;4829008;29;20041;-80
2022/10/07 00:08:42;;;;;;;15.80;13.30;;;;;;;;;;4858773;29;20033;-79
2022/10/07 00:11:16;;;;;;;17.08;13.30;;;;;;;;;;4831766;29;20044;-78
2022/10/07 00:13:43;;;;;;;22.10;14.35;;;;;;;;;;4843912;29;20026;-79
2022/10/07 00:16:11;;;;;;;16.40;14.75;;;;;;;;;;4845351;29;20548;-79
2022/10/07 00:18:38;;;;;;;16.70;14.85;;;;;;;;;;4847688;29;20361;-79
2022/10/07 00:21:05;;;;;;;16.40;14.70;;;;;;;;;;4853357;29;20496;-79
2022/10/07 00:23:31;;;;;;;20.15;15.00;;;;;;;;;;4860587;29;20045;-80
2022/10/07 00:26:05;;;;;;;22.10;15.32;;;;;;;;;;4866351;29;20033;-79
2022/10/07 00:28:31;;;;;;;17.80;16.00;;;;;;;;;;4865262;29;20021;-79
2022/10/07 00:31:01;;;;;;;18.35;16.23;;;;;;;;;;4868444;29;20030;-80
2022/10/07 00:33:30;;;;;;;16.67;15.02;;;;;;;;;;4864852;29;20040;-80
2022/10/07 00:35:56;;;;;;;16.75;14.98;;;;;;;;;;4863966;29;20507;-79
2022/10/07 00:38:22;;;;;;;17.58;15.25;;;;;;;;;;4853917;29;20475;-80
2022/10/07 00:40:48;;;;;;;17.38;15.30;;;;;;;;;;4855321;29;20172;-79
2022/10/07 00:43:31;;;;;;;17.50;15.55;;;;;;;;;;4864786;29;20030;-80
2022/10/07 00:46:00;;;;;;;16.87;15.17;;;;;;;;;;4895699;29;20049;-81
2022/10/07 00:48:27;;;;;;;16.80;14.73;;;;;;;;;;4849749;29;20484;-80
2022/10/07 00:50:55;;;;;;;15.55;14.05;;;;;;;;;;4847162;29;20033;-80
2022/10/07 00:53:23;;;;;;;16.40;14.55;;;;;;;;;;4878382;29;20030;-80
2022/10/07 00:55:49;;;;;;;21.17;14.25;;;;;;;;;;4864074;29;20033;-80
2022/10/07 00:58:16;;;;;;;18.27;14.77;;;;;;;;;;4864490;29;20037;-80
2022/10/07 01:00:42;;;;;;;17.60;15.00;;;;;;;;;;4891519;29;20033;-79
2022/10/07 01:03:08;;;;;;;16.27;14.55;;;;;;;;;;4860666;29;20072;-81
2022/10/07 01:05:34;;;;;;;20.45;14.82;;;;;;;;;;4844044;29;20472;-80
2022/10/07 01:08:00;;;;;;;15.48;13.75;;;;;;;;;;4871235;29;20503;-79
2022/10/07 01:10:29;;;;;;;17.52;13.63;;;;;;;;;;4846994;29;20428;-79
2022/10/07 01:13:13;;;;;;;18.02;14.48;;;;;;;;;;4845480;29;20055;-80
2022/10/07 01:16:02;;;;;;;15.18;13.50;;;;;;;;;;4865063;29;20432;-79
2022/10/07 01:18:32;;;;;;;15.00;13.38;;;;;;;;;;4862160;29;20037;-79
2022/10/07 01:21:01;;;;;;;16.00;14.25;;;;;;;;;;4849245;29;20049;-79
2022/10/07 01:23:27;;;;;;;16.23;14.57;;;;;;;;;;4854194;29;20032;-79
2022/10/07 01:26:12;;;;;;;16.83;15.13;;;;;;;;;;4875298;29;20053;-80
2022/10/07 01:28:45;;;;;;;15.60;13.73;;;;;;;;;;4862368;29;20419;-79
2022/10/07 01:31:11;;;;;;;;;;;;;;;;;;4862933;29;20046;-79
2022/10/07 01:33:38;;;;;;;14.82;12.82;;;;;;;;;;4870047;29;19912;-79
2022/10/07 01:36:10;;;;;;;19.05;14.93;;;;;;;;;;4863530;29;20109;-80
2022/10/07 01:38:37;;;;;;;15.55;13.73;;;;;;;;;;4844036;29;20030;-79
2022/10/07 01:41:14;;;;;;;15.35;13.73;;;;;;;;;;4868050;29;20037;-80
2022/10/07 01:43:41;;;;;;;14.75;13.07;;;;;;;;;;4864449;29;20021;-80
2022/10/07 01:46:10;;;;;;;14.55;11.85;;;;;;;;;;4868092;29;20122;-79
2022/10/07 01:48:36;;;;;;;17.02;13.07;;;;;;;;;;4867843;29;20053;-78
2022/10/07 01:51:02;;;;;;;14.55;11.60;;;;;;;;;;4868566;29;20052;-79
2022/10/07 01:53:41;;;;;;;12.10;10.77;;;;;;;;;;4861612;29;20022;-79
2022/10/07 01:56:13;;;;;;;13.50;10.68;;;;;;;;;;4862692;29;20037;-79
2022/10/07 01:58:58;;;;;;;16.55;11.75;;;;;;;;;;4861374;29;20388;-79
2022/10/07 02:01:24;;;;;;;19.05;12.85;;;;;;;;;;4845601;29;20048;-79
2022/10/07 02:04:03;;;;;;;16.80;12.40;;;;;;;;;;4845098;29;20081;-79
2022/10/07 02:06:47;;;;;;;16.77;12.95;;;;;;;;;;4875285;29;20412;-79
2022/10/07 02:09:32;;;;;;;15.23;13.05;;;;;;;;;;4861456;29;20029;-79
2022/10/07 02:12:08;;;;;;;16.27;13.00;;;;;;;;;;4855744;29;20033;-79
2022/10/07 02:14:43;;;;;;;16.67;12.40;;;;;;;;;;4861110;29;20034;-79
2022/10/07 02:17:15;;;;;;;14.40;12.90;;;;;;;;;;4846411;29;20045;-79
2022/10/07 02:19:43;;;;;;;14.85;12.63;;;;;;;;;;4845422;29;20041;-79
2022/10/07 02:22:10;;;;;;;16.23;12.68;;;;;;;;;;4846945;29;20080;-79
2022/10/07 02:24:37;;;;;;;15.48;12.05;;;;;;;;;;4854692;29;20034;-79
2022/10/07 02:27:05;;;;;;;16.75;12.68;;;;;;;;;;4861847;29;20094;-79
2022/10/07 02:29:33;;;;;;;14.43;12.05;;;;;;;;;;4874939;29;20037;-78
2022/10/07 02:32:00;;;;;;;12.98;11.45;;;;;;;;;;4861313;29;20037;-79
2022/10/07 02:34:27;;;;;;;13.15;11.70;;;;;;;;;;4859298;29;20081;-79
2022/10/07 02:36:59;;;;;;;12.27;10.93;;;;;;;;;;4861829;29;20031;-79
2022/10/07 02:39:26;;;;;;;16.60;11.02;;;;;;;;;;4845168;29;20041;-79
2022/10/07 02:42:00;;;;;;;12.13;9.90;;;;;;;;;;4861563;29;20034;-79
2022/10/07 02:44:38;;;;;;;13.23;9.85;;;;;;;;;;4859909;29;20528;-78
2022/10/07 02:47:04;;;;;;;11.48;9.57;;;;;;;;;;4844529;29;20068;-79
2022/10/07 02:49:31;;;;;;;10.80;9.57;;;;;;;;;;4861961;29;20448;-78
2022/10/07 02:52:04;;;;;;;12.75;10.35;;;;;;;;;;4862505;29;20440;-80
2022/10/07 02:54:33;;;;;;;12.00;9.82;;;;;;;;;;4864221;29;20086;-79
2022/10/07 02:57:00;;;;;;;10.73;9.57;;;;;;;;;;4878188;29;20034;-79
2022/10/07 02:59:27;;;;;;;11.18;9.55;;;;;;;;;;4873939;29;20077;-79
2022/10/07 03:01:55;;;;;;;14.25;9.32;;;;;;;;;;4864171;29;20085;-79
2022/10/07 03:04:22;;;;;;;10.85;9.20;;;;;;;;;;4858875;29;20030;-78
2022/10/07 03:06:48;;;;;;;14.63;10.07;;;;;;;;;;4859244;29;20037;-79
2022/10/07 03:09:14;;;;;;;10.85;9.75;;;;;;;;;;4848860;29;20021;-79
2022/10/07 03:11:40;;;;;;;14.35;9.27;;;;;;;;;;4849230;29;20034;-79
2022/10/07 03:14:06;;;;;;;8.88;7.97;;;;;;;;;;4860240;29;20484;-79
2022/10/07 03:16:33;;;;;;;10.13;7.50;;;;;;;;;;4843372;29;20116;-78
2022/10/07 03:18:59;;;;;;;10.02;7.80;;;;;;;;;;4844069;29;20029;-79
2022/10/07 03:21:25;;;;;;;11.38;7.82;;;;;;;;;;4849287;29;20060;-79
2022/10/07 03:23:52;;;;;;;12.18;8.18;;;;;;;;;;4860791;29;20105;-79
2022/10/07 03:26:18;;;;;;;9.10;8.18;;;;;;;;;;4860373;29;20109;-78
2022/10/07 03:28:44;;;;;;;14.40;8.90;;;;;;;;;;4890835;29;20033;-79
2022/10/07 03:31:11;;;;;;;12.02;8.43;;;;;;;;;;4860909;29;20038;-78
2022/10/07 03:33:37;;;;;;;9.63;8.63;;;;;;;;;;4861284;29;20058;-79
2022/10/07 03:36:04;;;;;;;12.00;8.90;;;;;;;;;;4843163;29;20074;-80
2022/10/07 03:38:31;;;;;;;8.57;7.55;;;;;;;;;;4875008;29;20120;-79
2022/10/07 03:40:57;;;;;;;11.82;8.25;;;;;;;;;;4846643;29;20081;-79
2022/10/07 03:43:24;;;;;;;15.90;7.82;;;;;;;;;;4844258;29;20049;-79
2022/10/07 03:45:50;;;;;;;11.02;7.22;;;;;;;;;;4860331;29;20037;-79
2022/10/07 03:48:16;;;;;;;8.23;7.18;;;;;;;;;;4881920;29;20067;-79
2022/10/07 03:50:52;;;;;;;11.02;7.22;;;;;;;;;;4857707;29;20033;-79
2022/10/07 03:53:18;;;;;;;9.93;6.60;;;;;;;;;;4867179;29;20035;-79
2022/10/07 03:55:45;;;;;;;11.48;7.00;;;;;;;;;;4862977;29;20108;-79
2022/10/07 03:58:11;;;;;;;9.63;6.38;;;;;;;;;;4846848;29;20064;-77
2022/10/07 04:00:38;;;;;;;9.55;6.60;;;;;;;;;;4870418;29;20491;-78
2022/10/07 04:03:06;;;;;;;10.43;6.68;;;;;;;;;;4868047;29;20096;-79
2022/10/07 04:05:32;;;;;;;7.47;5.93;;;;;;;;;;4876728;29;20049;-79
2022/10/07 04:07:59;;;;;;;8.05;5.13;;;;;;;;;;4867036;29;20025;-79
2022/10/07 04:10:25;;;;;;;8.18;5.43;;;;;;;;;;4849324;29;20074;-79
2022/10/07 04:12:51;;;;;;;8.02;5.93;;;;;;;;;;4857364;29;20040;-79
2022/10/07 04:15:19;;;;;;;9.60;5.60;;;;;;;;;;4851964;29;20036;-79
2022/10/07 04:17:46;;;;;;;14.55;6.20;;;;;;;;;;4863136;29;20025;-78
2022/10/07 04:20:12;;;;;;;9.27;5.78;;;;;;;;;;4864560;29;20502;-78
2022/10/07 04:22:39;;;;;;;10.73;5.55;;;;;;;;;;4865664;29;20483;-78
2022/10/07 04:27:52;;;;;;;9.25;5.68;;;;;;;;;;4862090;29;20077;-78
2022/10/07 04:30:19;;;;;;;8.25;5.63;;;;;;;;;;4846880;29;20392;-78
2022/10/07 04:32:45;;;;;;;9.68;6.50;;;;;;;;;;4847110;29;20492;-79
2022/10/07 04:35:11;;;;;;;16.17;6.30;;;;;;;;;;4877063;29;20064;-77
2022/10/07 04:37:37;;;;;;;13.10;5.78;;;;;;;;;;4863366;29;20029;-78
2022/10/07 04:40:03;;;;;;;10.90;6.45;;;;;;;;;;4863991;29;20025;-78
2022/10/07 04:45:14;;;;;;;8.95;6.40;;;;;;;;;;4863637;29;20084;-79
2022/10/07 04:47:40;;;;;;;13.13;6.47;;;;;;;;;;4863338;29;20029;-78
2022/10/07 04:50:07;;;;;;;10.52;6.40;;;;;;;;;;4877156;29;20086;-78
2022/10/07 04:52:33;;;;;;;16.45;6.60;;;;;;;;;;4861892;29;20100;-78
2022/10/07 04:54:59;;;;;;;14.27;6.38;;;;;;;;;;4864593;29;20390;-78
2022/10/07 04:57:25;;;;;;;10.07;6.30;;;;;;;;;;4847940;29;20120;-78
2022/10/07 04:59:51;;;;;;;12.80;6.35;;;;;;;;;;4846717;29;20056;-78
2022/10/07 05:02:17;;;;;;;10.68;6.03;;;;;;;;;;4848649;29;20040;-78
2022/10/07 05:04:43;;;;;;;13.93;6.95;;;;;;;;;;4866373;29;20036;-78
2022/10/07 05:07:09;;;;;;;13.13;6.13;;;;;;;;;;4875349;29;20047;-78
2022/10/07 05:09:36;;;;;;;10.15;5.72;;;;;;;;;;4856965;29;20433;-79
2022/10/07 05:12:02;;;;;;;7.82;5.20;;;;;;;;;;4877835;29;20051;-78
2022/10/07 05:14:29;;;;;;;10.73;6.10;;;;;;;;;;4861101;29;20104;-77
2022/10/07 05:16:55;;;;;;;12.35;6.80;;;;;;;;;;4863876;29;20030;-77
2022/10/07 05:19:21;;;;;;;13.15;6.65;;;;;;;;;;4861198;29;20105;-77
2022/10/07 05:21:47;;;;;;;13.75;6.50;;;;;;;;;;4860687;29;20061;-77
2022/10/07 05:24:13;;;;;;;11.15;6.05;;;;;;;;;;4860913;29;20029;-77
2022/10/07 05:26:39;;;;;;;15.57;6.28;;;;;;;;;;4863500;29;20112;-77
2022/10/07 05:29:05;;;;;;;11.18;6.30;;;;;;;;;;4861301;29;20357;-77
2022/10/07 05:31:32;;;;;;;10.07;5.45;;;;;;;;;;4861316;29;20524;-77
2022/10/07 05:33:59;;;;;;;8.95;4.60;;;;;;;;;;4861674;29;20037;-77
2022/10/07 05:36:26;;;;;;;9.05;5.05;;;;;;;;;;4844935;29;20502;-77
2022/10/07 05:38:58;;;;;;;8.07;4.35;;;;;;;;;;4861905;29;20049;-77
2022/10/07 05:41:24;;;;;;;13.48;5.30;;;;;;;;;;4862211;29;20116;-77
2022/10/07 05:43:50;;;;;;;11.02;5.40;;;;;;;;;;4861731;29;20021;-78
2022/10/07 05:46:22;;;;;;;7.30;5.30;;;;;;;;;;4891353;29;20132;-77
2022/10/07 05:48:50;;;;;;;12.73;5.90;;;;;;;;;;4861617;29;20024;-77
2022/10/07 05:51:16;;;;;;;9.98;6.10;;;;;;;;;;4860702;29;20115;-77
2022/10/07 05:53:45;;;;;;;11.30;5.80;;;;;;;;;;4860397;29;20097;-78
2022/10/07 05:56:13;;;;;;;8.60;6.07;;;;;;;;;;4859834;29;20101;-77
2022/10/07 05:58:39;;;;;;;14.88;7.03;;;;;;;;;;4852585;29;20456;-77
2022/10/07 06:01:07;;;;;;;9.88;7.55;;;;;;;;;;4860394;29;20037;-77
2022/10/07 06:03:33;;;;;;;10.05;7.15;;;;;;;;;;4862135;29;20116;-77
2022/10/07 06:05:59;;;;;;;17.58;7.72;;;;;;;;;;4859857;29;20037;-77
2022/10/07 06:08:26;;;;;;;14.45;9.05;;;;;;;;;;4860348;29;20022;-77
2022/10/07 06:13:37;;;;;;;16.00;6.63;;;;;;;;;;4869600;29;20044;-78
2022/10/07 06:16:07;;;;;;;15.35;7.60;;;;;;;;;;4850612;29;20037;-80
2022/10/07 06:18:35;;;;;;;17.55;7.00;;;;;;;;;;4860555;29;20029;-79
2022/10/07 06:21:01;;;;;;;10.93;6.80;;;;;;;;;;4872247;29;20065;-78
2022/10/07 06:23:29;;;;;;;14.82;6.53;;;;;;;;;;4842473;29;20055;-77
2022/10/07 06:25:59;;;;;;;12.25;7.00;;;;;;;;;;4847475;29;20038;-78
2022/10/07 06:28:26;;;;;;;15.40;7.60;;;;;;;;;;4844392;29;20034;-78
2022/10/07 06:30:52;;;;;;;27.98;11.23;;;;;;;;;;4851039;29;20384;-78
2022/10/07 06:33:18;;;;;;;10.68;5.82;;;;;;;;;;4847374;29;20033;-77
2022/10/07 06:35:45;;;;;;;15.27;5.75;;;;;;;;;;4845365;29;20034;-78
2022/10/07 06:38:12;;;;;;;12.75;6.00;;;;;;;;;;4843171;29;20481;-77
2022/10/07 06:40:38;;;;;;;16.65;5.95;;;;;;;;;;4840614;29;20147;-78
2022/10/07 06:43:05;;;;;;;12.20;5.95;;;;;;;;;;4851320;29;20030;-77
2022/10/07 06:45:31;;;;;;;15.57;6.13;;;;;;;;;;4852956;29;20045;-76
2022/10/07 06:47:58;;;;;;;11.18;6.70;;;;;;;;;;4840327;29;20042;-77
2022/10/07 06:50:24;;;;;;;15.25;6.93;;;;;;;;;;4840138;29;20026;-77
2022/10/07 06:52:50;;;;;;;16.95;7.55;;;;;;;;;;4839714;29;20025;-77
2022/10/07 06:55:16;;;;;;;15.30;8.65;;;;;;;;;;4839902;29;20054;-77
2022/10/07 06:57:44;;;;;;;18.73;8.63;;;;;;;;;;4849924;29;20033;-77
2022/10/07 07:00:10;;;;;;;14.07;7.63;;;;;;;;;;4843461;29;20471;-78
2022/10/07 07:02:36;;;;;;;12.38;7.68;;;;;;;;;;4845546;29;20113;-79
2022/10/07 07:05:04;;;;;;;17.88;8.35;;;;;;;;;;4844104;29;20058;-77
2022/10/07 07:07:30;;;;;;;19.10;8.50;;;;;;;;;;4844395;29;20404;-78
2022/10/07 07:09:56;;;;;;;19.23;8.32;;;;;;;;;;4846747;29;20029;-78
2022/10/07 07:12:24;;;;;;;17.92;8.20;;;;;;;;;;4841315;29;20034;-78
2022/10/07 07:14:50;;;;;;;13.70;9.45;;;;;;;;;;4844757;29;20053;-79
2022/10/07 07:17:17;;;;;;;14.80;7.13;;;;;;;;;;4842078;29;20038;-78
2022/10/07 07:19:44;;;;;;;11.50;7.55;;;;;;;;;;4847510;29;20476;-79
2022/10/07 07:22:10;;;;;;;18.67;8.35;;;;;;;;;;4861054;29;20130;-78
2022/10/07 07:24:37;;;;;;;15.15;7.82;;;;;;;;;;4865201;29;20021;-78
2022/10/07 07:27:03;;;;;;;14.63;7.10;;;;;;;;;;4873713;29;20077;-79
2022/10/07 07:29:29;;;;;;;11.70;7.20;;;;;;;;;;4863314;29;20112;-79
2022/10/07 07:31:58;;;;;;;13.98;7.05;;;;;;;;;;4863590;29;20062;-79
2022/10/07 07:34:25;;;;;;;19.38;7.47;;;;;;;;;;4877254;29;20036;-77
2022/10/07 07:36:51;;;;;;;25.83;8.32;;;;;;;;;;4859967;29;20036;-78
2022/10/07 07:39:17;;;;;;;15.65;8.02;;;;;;;;;;4868159;29;20034;-78
2022/10/07 07:41:49;;;;;;;16.92;9.68;;;;;;;;;;4859416;29;20074;-77
2022/10/07 07:44:17;;;;;;;20.02;8.18;;;;;;;;;;4860813;29;20049;-77
2022/10/07 07:46:44;;;;;;;32.15;10.88;;;;;;;;;;4860691;29;20042;-77
2022/10/07 07:49:12;;;;;;;18.38;9.70;;;;;;;;;;4860518;29;20495;-78
2022/10/07 07:51:38;;;;;;;83.32;16.33;;;;;;;;;;4861466;29;20037;-77
2022/10/07 07:54:05;;;;;;;19.98;10.32;;;;;;;;;;4864510;29;20479;-78
2022/10/07 07:56:31;;;;;;;13.48;10.10;;;;;;;;;;4864590;29;20036;-77
2022/10/07 07:58:58;;;;;;;19.10;10.63;;;;;;;;;;4864099;29;20025;-77
2022/10/07 08:01:24;;;;;;;15.70;10.90;;;;;;;;;;4862854;29;20065;-77
2022/10/07 08:03:51;;;;;;;18.20;11.02;;;;;;;;;;4862263;29;20029;-78
2022/10/07 08:06:19;;;;;;;21.38;11.88;;;;;;;;;;4845736;29;20404;-77
2022/10/07 08:08:45;;;;;;;19.48;12.38;;;;;;;;;;4864025;29;20084;-78
2022/10/07 08:11:16;;;;;;;23.15;13.40;;;;;;;;;;4864789;29;20117;-78
2022/10/07 08:13:42;;;;;;;40.85;16.27;;;;;;;;;;4870134;29;20025;-77
2022/10/07 08:16:11;;;;;;;35.42;15.07;;;;;;;;;;4862153;29;20045;-77
2022/10/07 08:18:38;;;;;;;27.77;14.20;;;;;;;;;;4862827;29;20022;-79
2022/10/07 08:21:06;;;;;;;31.30;14.82;;;;;;;;;;4873160;29;20082;-78
2022/10/07 08:23:32;;;;;;;30.23;14.20;;;;;;;;;;4870182;29;20527;-77
2022/10/07 08:25:59;;;;;;;24.15;14.10;;;;;;;;;;4864890;29;20349;-78
2022/10/07 08:28:26;;;;;;;25.77;13.40;;;;;;;;;;4867044;29;20170;-79
2022/10/07 08:30:52;;;;;;;19.13;12.82;;;;;;;;;;4874315;29;20033;-79
2022/10/07 08:33:19;;;;;;;20.45;12.52;;;;;;;;;;4854440;29;20109;-79
2022/10/07 08:35:51;;;;;;;17.98;12.65;;;;;;;;;;4882037;29;20036;-79
2022/10/07 08:38:18;;;;;;;20.05;12.55;;;;;;;;;;4843389;29;20080;-78
2022/10/07 08:40:51;;;;;;;25.05;14.02;;;;;;;;;;4858101;29;20038;-79
2022/10/07 08:43:19;;;;;;;20.88;13.40;;;;;;;;;;4853133;29;20033;-79
2022/10/07 08:45:45;;;;;;;23.20;13.25;;;;;;;;;;4852303;29;20042;-78
2022/10/07 08:48:17;;;;;;;19.33;12.95;;;;;;;;;;4863694;29;20082;-79
2022/10/07 08:50:55;;;;;;;17.55;12.85;;;;;;;;;;4861624;29;20025;-78
2022/10/07 08:53:26;;;;;;;19.40;11.70;;;;;;;;;;4858399;29;20033;-78
2022/10/07 08:55:54;;;;;;;20.85;12.50;;;;;;;;;;4857809;29;20062;-79
2022/10/07 08:58:29;;;;;;;21.33;11.95;;;;;;;;;;4859113;29;20038;-78
2022/10/07 09:00:55;;;;;;;17.90;11.35;;;;;;;;;;4860980;29;20033;-78
2022/10/07 09:03:31;;;;;;;13.40;9.52;;;;;;;;;;4875518;29;20085;-78
2022/10/07 09:05:58;;;;;;;18.85;9.07;;;;;;;;;;4869942;29;20044;-78
2022/10/07 09:08:28;;;;;;;15.27;9.38;;;;;;;;;;4862353;29;20045;-78
2022/10/07 09:10:58;;;;;;;14.27;8.10;;;;;;;;;;4861348;29;20030;-78
2022/10/07 09:13:28;;;;;;;11.18;7.13;;;;;;;;;;4862220;29;20025;-80
2022/10/07 09:15:57;;;;;;;14.35;8.43;;;;;;;;;;4872977;29;20030;-78
2022/10/07 09:18:30;;;;;;;17.58;8.57;;;;;;;;;;4861132;29;20041;-78
2022/10/07 09:20:56;;;;;;;;;;;;;;;;;;4864200;29;20069;-78
2022/10/07 09:23:24;;;;;;;14.70;6.97;;;;;;;;;;4861240;29;20011;-78
2022/10/07 09:25:50;;;;;;;11.05;7.63;;;;;;;;;;4862261;29;20028;-77
2022/10/07 09:28:26;;;;;;;12.98;7.30;;;;;;;;;;4860836;29;20030;-78
2022/10/07 09:30:53;;;;;;;9.43;7.30;;;;;;;;;;4844698;29;20112;-79
2022/10/07 09:33:20;;;;;;;9.70;6.93;;;;;;;;;;4864322;29;20075;-77
2022/10/07 09:35:52;;;;;;;12.43;7.90;;;;;;;;;;4861140;29;20036;-78
2022/10/07 09:38:30;;;;;;;14.00;7.63;;;;;;;;;;4895791;29;20033;-80
2022/10/07 09:41:16;;;;;;;11.35;7.40;;;;;;;;;;4863328;29;20133;-79
2022/10/07 09:44:11;;;;;;;12.93;6.28;;;;;;;;;;4866000;29;20074;-79
2022/10/07 09:46:40;;;;;;;13.45;7.35;;;;;;;;;;4852777;29;20058;-78
2022/10/07 09:49:07;;;;;;;13.80;6.60;;;;;;;;;;4858376;29;20033;-79
2022/10/07 09:51:34;;;;;;;15.50;8.07;;;;;;;;;;4873420;29;20034;-78
2022/10/07 09:54:04;;;;;;;17.25;7.85;;;;;;;;;;4857930;29;20064;-79
2022/10/07 09:56:40;;;;;;;61.35;10.32;;;;;;;;;;4864557;29;20082;-79
2022/10/07 09:59:17;;;;;;;29.65;8.23;;;;;;;;;;4874781;29;20073;-80
2022/10/07 10:01:52;;;;;;;24.73;8.05;;;;;;;;;;4863625;29;20042;-78
2022/10/07 10:04:28;;;;;;;17.70;7.03;;;;;;;;;;4871482;29;20057;-82
2022/10/07 10:06:56;;;;;;;13.95;5.65;;;;;;;;;;4845307;29;20075;-79
2022/10/07 10:09:24;;;;;;;19.77;5.90;;;;;;;;;;4863098;29;20025;-80
2022/10/07 10:12:11;;;;;;;12.00;5.63;;;;;;;;;;4862413;29;20036;-80
2022/10/07 10:14:43;;;;;;;8.60;4.20;;;;;;;;;;4869371;29;20025;-80
2022/10/07 10:17:28;;;;;;;14.95;5.32;;;;;;;;;;4856346;29;20150;-78
2022/10/07 10:19:54;;;;;;;6.70;4.15;;;;;;;;;;4874976;29;20037;-80
2022/10/07 10:22:40;;;;;;;10.85;4.75;;;;;;;;;;4853972;29;20046;-81
2022/10/07 10:28:02;;;;;;;19.33;4.90;;;;;;;;;;4867286;29;20128;-80
2022/10/07 10:30:29;;;;;;;13.32;4.38;;;;;;;;;;4879761;29;20036;-80
2022/10/07 10:33:07;;;;;;;10.73;4.78;;;;;;;;;;4850885;29;20499;-81
2022/10/07 10:35:59;;;;;;;49.78;8.02;;;;;;;;;;4879737;29;20408;-80
2022/10/07 10:38:32;;;;;;;10.18;4.82;;;;;;;;;;4886419;29;20049;-80
2022/10/07 10:41:05;;;;;;;7.93;4.78;;;;;;;;;;4854975;29;20037;-81
2022/10/07 10:43:58;;;;;;;9.50;4.35;;;;;;;;;;4856912;29;20839;-80
2022/10/07 10:46:30;;;;;;;9.30;5.13;;;;;;;;;;4862416;29;20917;-79
2022/10/07 10:49:09;;;;;;;8.07;4.65;;;;;;;;;;4848252;29;20030;-79
2022/10/07 10:51:44;;;;;;;8.88;4.85;;;;;;;;;;4864059;29;20072;-78
2022/10/07 10:54:30;;;;;;;6.80;3.95;;;;;;;;;;4875002;29;20075;-80
2022/10/07 10:57:22;;;;;;;6.57;3.65;;;;;;;;;;4876255;29;20044;-76
2022/10/07 11:00:15;;;;;;;6.22;4.30;;;;;;;;;;4876096;29;20075;-80
2022/10/07 11:02:58;;;;;;;10.57;4.22;;;;;;;;;;4859317;29;20124;-79
2022/10/07 11:05:25;;;;;;;6.93;4.20;;;;;;;;;;4859124;29;20037;-78
2022/10/07 11:08:10;;;;;;;7.40;4.38;;;;;;;;;;4846903;29;20034;-78
2022/10/07 11:10:40;;;;;;;10.23;4.40;;;;;;;;;;4862515;29;20048;-78
2022/10/07 11:13:17;;;;;;;5.97;3.97;;;;;;;;;;4866019;29;20052;-77
2022/10/07 11:16:04;;;;;;;10.02;4.25;;;;;;;;;;4846047;29;20105;-79
2022/10/07 11:18:30;;;;;;;7.55;4.82;;;;;;;;;;4820778;29;21968;-79
2022/10/07 11:20:58;;;;;;;9.75;4.70;;;;;;;;;;4824437;29;20050;-79
2022/10/07 11:23:40;;;;;;;9.07;4.47;;;;;;;;;;4808392;29;20414;-78
2022/10/07 11:26:39;;;;;;;10.02;4.50;;;;;;;;;;4792395;29;20544;-79
2022/10/07 11:29:17;;;;;;;9.70;4.78;;;;;;;;;;4751067;30;20040;-79
2022/10/07 11:31:47;;;;;;;9.27;5.90;;;;;;;;;;4757532;30;20121;-80
2022/10/07 11:34:24;;;;;;;9.15;5.70;;;;;;;;;;4741035;30;20036;-79
2022/10/07 11:37:14;;;;;;;10.60;6.50;;;;;;;;;;4762137;30;20044;-80
2022/10/07 11:39:40;;;;;;;16.38;7.75;;;;;;;;;;4757467;30;20036;-79
2022/10/07 11:42:20;;;;;;;12.95;7.18;;;;;;;;;;4745311;30;20146;-80
2022/10/07 11:45:00;;;;;;;12.90;7.00;;;;;;;;;;4743874;30;20040;-80
2022/10/07 11:47:35;;;;;;;14.18;7.13;;;;;;;;;;4748538;30;20067;-80
2022/10/07 11:50:01;;;;;;;16.65;7.88;;;;;;;;;;4739670;30;20064;-80
2022/10/07 11:52:30;;;;;;;24.05;7.60;;;;;;;;;;4756654;30;20047;-79
2022/10/07 11:55:06;;;;;;;14.15;7.97;;;;;;;;;;4753912;29;20046;-80
2022/10/07 11:57:35;;;;;;;12.13;7.40;;;;;;;;;;4809335;29;20042;-79
2022/10/07 12:00:21;;;;;;;12.05;6.95;;;;;;;;;;4812667;29;20027;-77
2022/10/07 12:02:48;;;;;;;10.60;6.60;;;;;;;;;;4817469;29;20027;-79
2022/10/07 12:05:33;;;;;;;11.65;6.63;;;;;;;;;;4854385;29;20050;-80
2022/10/07 12:08:02;;;;;;;11.10;6.25;;;;;;;;;;4957999;23;20073;-78
2022/10/07 12:10:33;;;;;;;9.55;5.85;;;;;;;;;;4891555;29;20032;-78
2022/10/07 12:13:34;;;;;;;19.77;7.82;;;;;;;;;;4887572;29;20044;-80
2022/10/07 12:16:21;;;;;;;12.23;5.90;;;;;;;;;;4845081;29;20041;-81
2022/10/07 12:19:10;;;;;;;8.82;6.10;;;;;;;;;;4833011;29;20500;-80
2022/10/07 12:22:08;;;;;;;10.68;6.47;;;;;;;;;;4826327;29;20043;-80
2022/10/07 12:24:37;;;;;;;14.20;6.68;;;;;;;;;;4751983;30;20514;-81
2022/10/07 12:27:31;;;;;;;12.10;7.03;;;;;;;;;;4763698;30;20143;-80
2022/10/07 12:30:01;;;;;;;11.13;6.82;;;;;;;;;;4773981;30;20174;-80
2022/10/07 12:32:45;;;;;;;10.70;6.78;;;;;;;;;;4770089;30;20078;-80
2022/10/07 12:35:52;;;;;;;13.88;6.63;;;;;;;;;;4763133;30;20070;-80
2022/10/07 12:38:22;;;;;;;13.63;6.60;;;;;;;;;;4770896;30;20419;-78
2022/10/07 12:41:02;;;;;;;14.07;6.95;;;;;;;;;;4771541;30;20103;-80
2022/10/07 12:43:53;;;;;;;10.23;6.82;;;;;;;;;;4755125;30;20043;-79
2022/10/07 12:46:21;;;;;;;14.27;7.20;;;;;;;;;;4734812;30;20109;-79
2022/10/07 12:48:57;;;;;;;10.40;6.35;;;;;;;;;;4758578;30;20126;-78
2022/10/07 12:51:28;;;;;;;14.15;6.40;;;;;;;;;;4759082;29;20518;-78
2022/10/07 12:53:57;;;;;;;12.55;6.50;;;;;;;;;;4760988;30;20449;-78
2022/10/07 12:56:28;;;;;;;11.85;7.82;;;;;;;;;;4771303;30;20039;-79
2022/10/07 13:02:06;;;;;;;10.07;6.13;;;;;;;;;;4836886;29;20069;-79
2022/10/07 13:04:47;;;;;;;10.63;6.90;;;;;;;;;;4830354;29;20515;-79
2022/10/07 13:07:24;;;;;;;13.43;7.47;;;;;;;;;;4830048;29;20058;-77
2022/10/07 13:09:51;;;;;;;13.65;6.93;;;;;;;;;;4866858;29;20054;-79
2022/10/07 13:12:26;;;;;;;13.05;7.13;;;;;;;;;;4880934;29;20032;-79
2022/10/07 13:15:12;;;;;;;13.55;7.88;;;;;;;;;;4899700;29;20013;-83
2022/10/07 13:18:12;;;;;;;10.15;6.80;;;;;;;;;;4898692;29;20033;-80
2022/10/07 13:21:03;;;;;;;11.73;6.88;;;;;;;;;;4836414;29;20505;-76
2022/10/07 13:23:31;;;;;;;13.77;6.35;;;;;;;;;;4825211;29;20057;-76
2022/10/07 13:25:58;;;;;;;14.90;7.20;;;;;;;;;;4791536;29;20513;-79
2022/10/07 13:28:26;;;;;;;11.98;6.72;;;;;;;;;;4837364;29;20043;-79
2022/10/07 13:30:52;;;;;;;11.93;6.10;;;;;;;;;;4832789;29;20042;-79
2022/10/07 13:33:18;;;;;;;7.78;5.70;;;;;;;;;;4829884;29;20045;-79
2022/10/07 13:35:44;;;;;;;8.60;6.25;;;;;;;;;;4823715;29;20042;-79
2022/10/07 13:38:20;;;;;;;14.52;6.78;;;;;;;;;;4832631;29;20034;-79
2022/10/07 13:41:15;;;;;;;12.02;6.32;;;;;;;;;;4827611;29;20051;-79
2022/10/07 13:43:43;;;;;;;8.93;5.80;;;;;;;;;;4822015;29;20103;-77
2022/10/07 13:46:28;;;;;;;14.88;6.03;;;;;;;;;;4833911;29;20052;-83
2022/10/07 13:51:48;;;;;;;13.15;6.10;;;;;;;;;;5031602;23;20086;-78
2022/10/07 13:54:19;;;;;;;9.43;6.07;;;;;;;;;;4894699;29;20033;-79
2022/10/07 13:56:46;;;;;;;11.32;5.57;;;;;;;;;;4915847;29;20076;-77
2022/10/07 13:59:19;;;;;;;13.90;6.40;;;;;;;;;;4911549;29;20024;-75
2022/10/07 14:01:47;;;;;;;11.98;5.20;;;;;;;;;;4887402;29;20041;-78
2022/10/07 14:04:24;;;;;;;9.07;5.80;;;;;;;;;;4909495;29;20039;-79
2022/10/07 14:06:52;;;;;;;16.83;8.32;;;;;;;;;;4906914;29;20016;-82
2022/10/07 14:09:25;;;;;;;11.85;5.95;;;;;;;;;;4897374;29;20032;-79
2022/10/07 14:11:57;;;;;;;12.90;6.53;;;;;;;;;;4914474;29;20032;-75
2022/10/07 14:14:26;;;;;;;9.68;6.45;;;;;;;;;;4916178;29;20032;-79
2022/10/07 14:17:00;;;;;;;18.00;8.85;;;;;;;;;;4896261;29;20092;-75
2022/10/07 14:19:31;;;;;;;14.80;7.15;;;;;;;;;;4918131;29;20063;-76
2022/10/07 14:22:13;;;;;;;10.80;6.78;;;;;;;;;;4897027;29;20040;-78
2022/10/07 14:24:40;;;;;;;13.50;6.20;;;;;;;;;;4900546;29;20053;-76
2022/10/07 14:27:27;;;;;;;17.20;6.80;;;;;;;;;;4900212;29;20109;-77
2022/10/07 14:29:53;;;;;;;15.52;6.70;;;;;;;;;;4906897;29;20045;-75
2022/10/07 14:35:18;;;;;;;13.18;5.88;;;;;;;;;;4899810;29;20036;-76
2022/10/07 14:37:44;;;;;;;11.73;5.72;;;;;;;;;;4891872;29;20033;-76
2022/10/07 14:40:17;;;;;;;12.15;5.88;;;;;;;;;;4880133;29;20038;-76
2022/10/07 14:42:43;;;;;;;;;;;;;;;;;;4891859;29;20014;-78
2022/10/07 14:45:14;;;;;;;13.48;4.95;;;;;;;;;;4897345;29;19912;-76
2022/10/07 14:47:43;;;;;;;12.63;4.93;;;;;;;;;;4891823;29;20057;-75
2022/10/07 14:50:10;;;;;;;9.35;4.60;;;;;;;;;;4896982;29;20013;-77
2022/10/07 14:52:45;;;;;;;8.80;4.45;;;;;;;;;;4891850;29;20152;-78
2022/10/07 14:55:17;;;;;;;15.40;5.93;;;;;;;;;;4890535;29;20021;-78
2022/10/07 14:57:43;;;;;;;14.07;4.63;;;;;;;;;;4896232;29;20045;-76
2022/10/07 15:00:18;;;;;;;9.60;5.03;;;;;;;;;;4893450;29;20061;-78
2022/10/07 15:02:44;;;;;;;12.93;5.18;;;;;;;;;;4892433;29;20120;-78
2022/10/07 15:05:11;;;;;;;8.70;4.53;;;;;;;;;;4894722;29;20123;-76
2022/10/07 15:07:37;;;;;;;11.68;4.85;;;;;;;;;;4895849;29;20021;-75
2022/10/07 15:10:05;;;;;;;11.43;4.40;;;;;;;;;;4891546;29;20020;-79